createdAt,value
2019-02-16T00:00:46.524Z,8.75
2019-02-16T00:03:15.240Z,8.68
2019-02-16T00:05:43.694Z,8.65
2019-02-16T00:08:12.130Z,8.65
2019-02-16T00:10:40.853Z,8.59
2019-02-16T00:13:11.678Z,8.61
2019-02-16T00:15:40.425Z,8.56
2019-02-16T00:18:09.346Z,8.57
2019-02-16T00:20:38.062Z,8.60
2019-02-16T00:23:06.756Z,8.59
2019-02-16T00:25:35.209Z,8.49
2019-02-16T00:28:03.915Z,8.51
2019-02-16T00:30:32.420Z,8.48
2019-02-16T00:33:01.127Z,8.44
2019-02-16T00:35:29.839Z,8.40
2019-02-16T00:37:58.290Z,8.31
2019-02-16T00:40:27.005Z,8.25
2019-02-16T00:42:55.452Z,8.19
2019-02-16T00:45:24.159Z,8.14
2019-02-16T00:47:52.603Z,8.20
2019-02-16T00:50:21.070Z,8.17
2019-02-16T00:52:49.787Z,8.20
2019-02-16T00:55:18.262Z,8.16
2019-02-16T00:57:46.955Z,8.19
2019-02-16T01:00:15.422Z,8.26
2019-02-16T01:02:43.857Z,8.24
2019-02-16T01:05:12.318Z,8.24
2019-02-16T01:07:40.788Z,8.22
2019-02-16T01:10:09.568Z,8.16
2019-02-16T01:12:38.252Z,8.13
2019-02-16T01:15:08.308Z,8.24
2019-02-16T01:17:36.757Z,8.23
2019-02-16T01:20:07.122Z,8.20
2019-02-16T01:22:35.798Z,8.22
2019-02-16T01:25:04.261Z,8.26
2019-02-16T01:27:32.699Z,8.22
2019-02-16T01:30:01.681Z,8.31
2019-02-16T01:32:30.121Z,8.23
2019-02-16T01:34:58.615Z,8.30
2019-02-16T01:37:27.057Z,8.26
2019-02-16T01:39:55.820Z,8.19
2019-02-16T01:42:26.776Z,8.11
2019-02-16T01:44:55.264Z,8.09
2019-02-16T01:47:24.967Z,8.05
2019-02-16T01:49:53.739Z,8.04
2019-02-16T01:52:22.206Z,8.02
2019-02-16T01:54:50.673Z,8.06
2019-02-16T01:57:19.371Z,8.12
2019-02-16T01:59:47.848Z,8.09
2019-02-16T02:02:16.291Z,8.09
2019-02-16T02:04:44.741Z,8.05
2019-02-16T02:07:13.203Z,7.96
2019-02-16T02:09:42.131Z,8.02
2019-02-16T02:12:10.751Z,7.91
2019-02-16T02:14:39.717Z,8.07
2019-02-16T02:17:08.183Z,7.92
2019-02-16T02:19:37.105Z,7.71
2019-02-16T02:22:05.817Z,7.70
2019-02-16T02:24:34.746Z,7.58
2019-02-16T02:27:03.194Z,7.48
2019-02-16T02:29:31.659Z,7.30
2019-02-16T02:32:00.161Z,7.37
2019-02-16T02:34:28.588Z,7.31
2019-02-16T02:36:57.529Z,7.28
2019-02-16T02:39:25.996Z,7.26
2019-02-16T02:41:54.683Z,7.21
2019-02-16T02:44:23.794Z,7.26
2019-02-16T02:46:52.496Z,6.98
2019-02-16T02:49:24.066Z,6.97
2019-02-16T02:51:52.783Z,6.91
2019-02-16T02:54:21.467Z,6.76
2019-02-16T02:56:51.587Z,6.64
2019-02-16T02:59:20.021Z,6.63
2019-02-16T03:01:48.497Z,6.52
2019-02-16T03:04:16.915Z,6.44
2019-02-16T03:06:47.125Z,6.43
2019-02-16T03:09:15.569Z,6.53
2019-02-16T03:11:44.852Z,6.64
2019-02-16T03:14:13.806Z,6.51
2019-02-16T03:16:42.247Z,6.59
2019-02-16T03:19:10.711Z,6.48
2019-02-16T03:21:39.403Z,6.39
2019-02-16T03:24:08.095Z,6.49
2019-02-16T03:27:13.277Z,6.47
2019-02-16T03:30:22.403Z,6.51
2019-02-16T03:33:42.498Z,6.59
2019-02-16T03:36:45.709Z,6.57
2019-02-16T03:39:36.506Z,6.68
2019-02-16T03:42:04.967Z,6.68
2019-02-16T03:44:33.634Z,6.74
2019-02-16T03:47:02.350Z,6.66
2019-02-16T03:49:31.292Z,6.68
2019-02-16T03:51:59.753Z,6.76
2019-02-16T03:54:28.431Z,6.67
2019-02-16T03:56:57.119Z,6.78
2019-02-16T03:59:26.061Z,6.65
2019-02-16T04:01:54.539Z,6.73
2019-02-16T04:04:22.971Z,6.62
2019-02-16T04:06:51.676Z,6.89
2019-02-16T04:09:20.344Z,6.68
2019-02-16T04:11:48.811Z,6.66
2019-02-16T04:14:17.500Z,6.54
2019-02-16T04:16:45.952Z,6.90
2019-02-16T04:19:14.638Z,6.77
2019-02-16T04:21:43.092Z,6.72
2019-02-16T04:24:12.023Z,6.54
2019-02-16T04:26:40.760Z,6.58
2019-02-16T04:29:09.708Z,6.56
2019-02-16T04:31:38.388Z,6.65
2019-02-16T04:34:06.913Z,6.50
2019-02-16T04:36:35.611Z,6.87
2019-02-16T04:39:05.347Z,6.80
2019-02-16T04:41:34.075Z,6.73
2019-02-16T04:44:02.553Z,6.70
2019-02-16T04:46:30.992Z,6.62
2019-02-16T04:48:59.693Z,6.66
2019-02-16T04:51:28.140Z,6.59
2019-02-16T04:53:56.877Z,6.42
2019-02-16T04:56:25.301Z,6.50
2019-02-16T04:58:53.756Z,6.38
2019-02-16T05:01:22.464Z,6.41
2019-02-16T05:03:51.167Z,6.38
2019-02-16T05:06:20.099Z,6.45
2019-02-16T05:08:48.785Z,6.47
2019-02-16T05:11:17.219Z,6.55
2019-02-16T05:13:45.921Z,6.52
2019-02-16T05:16:14.583Z,6.50
2019-02-16T05:18:43.289Z,6.51
2019-02-16T05:21:12.189Z,6.50
2019-02-16T05:23:40.699Z,6.61
2019-02-16T05:26:09.350Z,6.78
2019-02-16T05:28:38.263Z,6.78
2019-02-16T05:31:06.716Z,6.62
2019-02-16T05:33:35.181Z,6.48
2019-02-16T05:36:03.656Z,6.46
2019-02-16T05:38:32.601Z,6.43
2019-02-16T05:41:01.041Z,6.45
2019-02-16T05:43:29.511Z,6.42
2019-02-16T05:45:57.957Z,6.46
2019-02-16T05:48:26.893Z,6.49
2019-02-16T05:50:55.343Z,6.40
2019-02-16T05:53:24.025Z,6.46
2019-02-16T05:55:52.709Z,6.43
2019-02-16T05:58:21.156Z,6.29
2019-02-16T06:00:50.100Z,6.29
2019-02-16T06:03:18.792Z,6.37
2019-02-16T06:05:49.909Z,6.32
2019-02-16T06:08:18.357Z,6.29
2019-02-16T06:10:47.034Z,6.25
2019-02-16T06:13:15.699Z,6.24
2019-02-16T06:15:44.402Z,6.15
2019-02-16T06:18:15.726Z,6.12
2019-02-16T06:20:44.391Z,6.19
2019-02-16T06:23:13.565Z,6.30
2019-02-16T06:25:42.238Z,6.26
2019-02-16T06:28:11.119Z,6.22
2019-02-16T06:30:39.576Z,6.22
2019-02-16T06:33:08.294Z,6.20
2019-02-16T06:35:43.868Z,6.23
2019-02-16T06:38:12.836Z,6.16
2019-02-16T06:40:41.515Z,6.32
2019-02-16T06:43:10.474Z,6.20
2019-02-16T06:45:39.165Z,6.26
2019-02-16T06:48:08.104Z,6.30
2019-02-16T06:50:37.281Z,6.33
2019-02-16T06:53:13.078Z,6.24
2019-02-16T06:55:47.678Z,6.30
2019-02-16T06:58:16.365Z,6.39
2019-02-16T07:00:45.075Z,6.36
2019-02-16T07:03:14.043Z,6.38
2019-02-16T07:05:42.477Z,6.36
2019-02-16T07:08:11.440Z,6.38
2019-02-16T07:10:39.892Z,6.34
2019-02-16T07:13:08.553Z,6.37
2019-02-16T07:15:36.999Z,6.41
2019-02-16T07:18:30.567Z,6.53
2019-02-16T07:20:59.054Z,6.48
2019-02-16T07:23:27.747Z,6.47
2019-02-16T07:25:56.202Z,6.48
2019-02-16T07:28:24.888Z,6.46
2019-02-16T07:30:53.815Z,6.51
2019-02-16T07:33:22.496Z,6.57
2019-02-16T07:35:51.257Z,6.60
2019-02-16T07:38:20.187Z,6.77
2019-02-16T07:40:48.661Z,6.92
2019-02-16T07:43:35.506Z,6.93
2019-02-16T07:46:10.526Z,6.86
2019-02-16T07:48:54.668Z,7.01
2019-02-16T07:51:31.771Z,6.96
2019-02-16T07:54:10.025Z,6.94
2019-02-16T07:56:46.036Z,7.02
2019-02-16T07:59:32.305Z,7.06
2019-02-16T08:02:18.368Z,7.16
2019-02-16T08:05:04.737Z,7.18
2019-02-16T08:07:42.860Z,7.22
2019-02-16T08:10:20.525Z,7.30
2019-02-16T08:13:00.911Z,7.35
2019-02-16T08:15:48.530Z,7.36
2019-02-16T08:18:29.343Z,7.44
2019-02-16T08:21:11.031Z,7.60
2019-02-16T08:23:57.830Z,7.74
2019-02-16T08:26:43.789Z,7.69
2019-02-16T08:29:33.156Z,7.72
2019-02-16T08:32:19.897Z,7.84
2019-02-16T08:34:53.781Z,8.00
2019-02-16T08:37:40.514Z,8.15
2019-02-16T08:40:18.693Z,8.29
2019-02-16T08:43:12.690Z,8.43
2019-02-16T08:46:02.090Z,8.58
2019-02-16T08:48:58.949Z,8.68
2019-02-16T08:51:38.274Z,8.74
2019-02-16T08:54:17.792Z,8.86
2019-02-16T08:56:55.861Z,8.98
2019-02-16T08:59:38.261Z,9.10
2019-02-16T09:02:24.793Z,9.15
2019-02-16T09:05:15.117Z,9.14
2019-02-16T09:07:49.709Z,9.30
2019-02-16T09:10:26.023Z,9.42
2019-02-16T09:13:06.134Z,9.60
2019-02-16T09:16:14.780Z,9.71
2019-02-16T09:18:54.072Z,9.72
2019-02-16T09:21:50.858Z,9.78
2019-02-16T09:24:29.062Z,9.86
2019-02-16T09:27:22.844Z,9.92
2019-02-16T09:30:18.052Z,9.88
2019-02-16T09:33:05.289Z,10.01
2019-02-16T09:35:42.893Z,10.12
2019-02-16T09:38:19.359Z,10.29
2019-02-16T09:41:09.306Z,10.39
2019-02-16T09:44:02.905Z,10.45
2019-02-16T09:46:50.406Z,10.56
2019-02-16T09:49:38.216Z,10.56
2019-02-16T09:52:32.089Z,10.86
2019-02-16T09:55:31.573Z,10.86
2019-02-16T09:58:22.072Z,10.91
2019-02-16T10:01:00.327Z,11.04
2019-02-16T10:03:38.603Z,11.10
2019-02-16T10:06:24.200Z,11.20
2019-02-16T10:09:00.521Z,11.28
2019-02-16T10:11:57.583Z,11.42
2019-02-16T10:14:32.162Z,11.55
2019-02-16T10:17:17.123Z,11.56
2019-02-16T10:20:10.675Z,11.56
2019-02-16T10:23:08.375Z,11.48
2019-02-16T10:26:00.910Z,11.58
2019-02-16T10:28:48.711Z,11.71
2019-02-16T10:31:36.314Z,11.92
2019-02-16T10:34:15.245Z,11.98
2019-02-16T10:37:01.412Z,12.02
2019-02-16T10:40:03.935Z,12.11
2019-02-16T10:43:04.262Z,11.98
2019-02-16T10:45:57.455Z,12.11
2019-02-16T10:48:48.453Z,12.20
2019-02-16T10:51:30.182Z,12.25
2019-02-16T10:54:17.058Z,12.42
2019-02-16T10:57:07.734Z,12.49
2019-02-16T10:59:55.543Z,12.49
2019-02-16T11:02:30.071Z,12.50
2019-02-16T11:05:07.962Z,12.69
2019-02-16T11:07:42.407Z,12.72
2019-02-16T11:10:24.285Z,12.66
2019-02-16T11:12:57.547Z,12.73
2019-02-16T11:15:50.235Z,12.76
2019-02-16T11:18:35.831Z,12.84
2019-02-16T11:21:24.367Z,12.97
2019-02-16T11:24:10.525Z,12.96
2019-02-16T11:26:58.244Z,12.99
2019-02-16T11:29:43.980Z,12.99
2019-02-16T11:32:34.788Z,13.09
2019-02-16T11:35:22.298Z,13.12
2019-02-16T11:38:06.500Z,13.21
2019-02-16T11:40:53.057Z,13.33
2019-02-16T11:43:43.891Z,13.22
2019-02-16T11:46:31.412Z,13.35
2019-02-16T11:49:31.071Z,13.45
2019-02-16T11:52:18.800Z,13.45
2019-02-16T11:55:05.065Z,13.38
2019-02-16T11:57:51.193Z,13.37
2019-02-16T12:00:32.613Z,13.53
2019-02-16T12:03:06.729Z,13.48
2019-02-16T12:05:56.815Z,13.48
2019-02-16T12:08:34.880Z,13.53
2019-02-16T12:11:11.051Z,13.71
2019-02-16T12:13:57.357Z,13.60
2019-02-16T12:16:47.962Z,13.51
2019-02-16T12:19:27.922Z,13.73
2019-02-16T12:22:04.428Z,13.78
2019-02-16T12:25:05.034Z,13.97
2019-02-16T12:27:34.633Z,13.91
2019-02-16T12:30:22.261Z,14.02
2019-02-16T12:33:08.146Z,13.94
2019-02-16T12:35:50.475Z,14.11
2019-02-16T12:38:44.369Z,14.20
2019-02-16T12:41:30.475Z,14.27
2019-02-16T12:44:16.694Z,14.28
2019-02-16T12:47:02.860Z,14.43
2019-02-16T12:49:45.482Z,14.60
2019-02-16T12:52:48.183Z,14.62
2019-02-16T12:55:26.931Z,14.68
2019-02-16T12:58:11.014Z,14.78
2019-02-16T13:01:00.434Z,14.68
2019-02-16T13:03:41.698Z,14.74
2019-02-16T13:06:23.853Z,14.77
2019-02-16T13:09:10.687Z,14.72
2019-02-16T13:12:07.419Z,14.81
2019-02-16T13:14:54.625Z,14.87
2019-02-16T13:17:51.354Z,14.81
2019-02-16T13:20:40.282Z,14.78
2019-02-16T13:23:26.190Z,14.73
2019-02-16T13:26:05.249Z,14.85
2019-02-16T13:28:50.469Z,14.93
2019-02-16T13:31:36.771Z,15.02
2019-02-16T13:34:30.563Z,15.02
2019-02-16T13:37:16.955Z,14.93
2019-02-16T13:40:02.595Z,14.90
2019-02-16T13:42:37.508Z,14.90
2019-02-16T13:45:15.975Z,14.92
2019-02-16T13:47:55.712Z,14.93
2019-02-16T13:50:43.803Z,14.97
2019-02-16T13:53:24.321Z,14.96
2019-02-16T13:56:11.825Z,15.05
2019-02-16T13:59:01.742Z,15.02
2019-02-16T14:01:52.168Z,15.09
2019-02-16T14:04:31.784Z,15.01
2019-02-16T14:07:19.605Z,15.08
2019-02-16T14:10:06.340Z,15.14
2019-02-16T14:12:43.433Z,15.13
2019-02-16T14:15:34.062Z,15.18
2019-02-16T14:18:02.540Z,15.17
2019-02-16T14:20:31.034Z,15.13
2019-02-16T14:23:00.299Z,15.15
2019-02-16T14:25:44.940Z,15.12
2019-02-16T14:28:11.479Z,15.08
2019-02-16T14:30:40.211Z,14.97
2019-02-16T14:33:08.903Z,14.95
2019-02-16T14:35:40.221Z,14.87
2019-02-16T14:38:17.015Z,14.85
2019-02-16T14:40:45.467Z,14.90
2019-02-16T14:43:14.242Z,14.91
2019-02-16T14:45:42.707Z,14.89
2019-02-16T14:48:11.415Z,14.90
2019-02-16T14:50:40.157Z,14.90
2019-02-16T14:53:09.102Z,14.85
2019-02-16T14:55:38.039Z,14.75
2019-02-16T14:58:06.527Z,14.70
2019-02-16T15:00:34.967Z,14.67
2019-02-16T15:03:03.701Z,14.58
2019-02-16T15:05:32.144Z,14.57
2019-02-16T15:08:00.853Z,14.52
2019-02-16T15:10:29.561Z,14.43
2019-02-16T15:12:58.029Z,14.36
2019-02-16T15:15:26.479Z,14.18
2019-02-16T15:17:55.213Z,14.06
2019-02-16T15:20:23.965Z,14.01
2019-02-16T15:22:52.676Z,13.91
2019-02-16T15:25:21.132Z,13.88
2019-02-16T15:27:49.614Z,13.81
2019-02-16T15:30:18.514Z,13.68
2019-02-16T15:32:48.325Z,13.62
2019-02-16T15:35:16.784Z,13.56
2019-02-16T15:37:45.774Z,13.56
2019-02-16T15:40:14.485Z,13.50
2019-02-16T15:42:43.450Z,13.35
2019-02-16T15:45:13.327Z,13.27
2019-02-16T15:47:44.324Z,13.21
2019-02-16T15:50:13.530Z,13.09
2019-02-16T15:52:42.274Z,13.01
2019-02-16T15:55:11.058Z,12.90
2019-02-16T15:57:39.775Z,12.81
2019-02-16T16:00:12.884Z,12.71
2019-02-16T16:02:41.566Z,12.65
2019-02-16T16:05:10.018Z,12.61
2019-02-16T16:07:39.851Z,12.52
2019-02-16T16:10:12.914Z,12.38
2019-02-16T16:13:09.523Z,12.33
2019-02-16T16:16:02.775Z,12.21
2019-02-16T16:18:46.206Z,12.11
2019-02-16T16:21:20.803Z,12.02
2019-02-16T16:24:16.260Z,11.92
2019-02-16T16:27:06.639Z,11.83
2019-02-16T16:29:43.725Z,11.69
2019-02-16T16:32:19.412Z,11.62
2019-02-16T16:35:09.691Z,11.54
2019-02-16T16:37:44.835Z,11.41
2019-02-16T16:40:23.387Z,11.28
2019-02-16T16:43:11.131Z,11.19
2019-02-16T16:46:00.130Z,11.19
2019-02-16T16:48:39.741Z,11.06
2019-02-16T16:51:33.567Z,11.11
2019-02-16T16:54:09.889Z,10.99
2019-02-16T16:56:55.999Z,10.90
2019-02-16T16:59:35.291Z,10.80
2019-02-16T17:02:21.575Z,10.69
2019-02-16T17:05:07.037Z,10.61
2019-02-16T17:07:57.450Z,10.48
2019-02-16T17:10:50.015Z,10.08
2019-02-16T17:13:55.916Z,10.29
2019-02-16T17:16:42.541Z,10.30
2019-02-16T17:19:36.111Z,10.30
2019-02-16T17:22:29.453Z,10.30
2019-02-16T17:25:13.667Z,10.25
2019-02-16T17:28:00.927Z,10.20
2019-02-16T17:30:38.063Z,10.20
2019-02-16T17:33:22.011Z,10.12
2019-02-16T17:35:59.079Z,10.04
2019-02-16T17:38:46.807Z,9.94
2019-02-16T17:41:37.388Z,9.89
2019-02-16T17:44:28.028Z,9.83
2019-02-16T17:47:21.881Z,9.38
2019-02-16T17:50:08.395Z,9.77
2019-02-16T17:53:02.951Z,9.76
2019-02-16T17:55:49.522Z,9.66
2019-02-16T17:58:29.140Z,9.66
2019-02-16T18:01:15.674Z,9.54
2019-02-16T18:03:51.596Z,9.50
2019-02-16T18:06:29.709Z,9.44
2019-02-16T18:09:16.245Z,9.25
2019-02-16T18:11:50.662Z,9.19
2019-02-16T18:14:44.255Z,9.09
2019-02-16T18:17:20.396Z,9.05
2019-02-16T18:19:58.967Z,8.91
2019-02-16T18:22:47.481Z,8.87
2019-02-16T18:25:30.493Z,8.86
2019-02-16T18:28:10.890Z,8.86
2019-02-16T18:30:57.176Z,8.88
2019-02-16T18:33:35.028Z,8.83
2019-02-16T18:36:10.112Z,8.86
2019-02-16T18:38:58.184Z,8.92
2019-02-16T18:41:54.966Z,9.04
2019-02-16T18:44:31.006Z,9.18
2019-02-16T18:47:17.650Z,9.12
2019-02-16T18:50:03.988Z,9.06
2019-02-16T18:52:49.706Z,9.10
2019-02-16T18:55:36.336Z,9.14
2019-02-16T18:58:11.918Z,9.20
2019-02-16T19:01:14.319Z,9.25
2019-02-16T19:04:00.413Z,9.26
2019-02-16T19:06:53.663Z,9.30
2019-02-16T19:09:31.854Z,9.31
2019-02-16T19:12:10.183Z,9.33
2019-02-16T19:14:57.875Z,9.36
2019-02-16T19:17:32.854Z,9.34
2019-02-16T19:20:28.611Z,9.34
2019-02-16T19:23:28.097Z,9.31
2019-02-16T19:26:12.026Z,9.32
2019-02-16T19:28:55.533Z,9.28
2019-02-16T19:31:34.988Z,9.27
2019-02-16T19:34:14.429Z,9.26
2019-02-16T19:37:03.305Z,9.28
2019-02-16T19:39:39.857Z,9.26
2019-02-16T19:42:22.182Z,9.22
2019-02-16T19:45:25.070Z,9.22
2019-02-16T19:48:04.595Z,9.20
2019-02-16T19:50:40.221Z,9.16
2019-02-16T19:53:28.925Z,9.12
2019-02-16T19:56:12.819Z,9.06
2019-02-16T19:59:04.555Z,8.99
2019-02-16T20:01:58.391Z,8.93
2019-02-16T20:04:36.013Z,8.87
2019-02-16T20:07:19.819Z,8.84
2019-02-16T20:10:03.754Z,8.84
2019-02-16T20:12:49.980Z,8.74
2019-02-16T20:15:38.997Z,8.74
2019-02-16T20:18:18.822Z,8.71
2019-02-16T20:21:05.016Z,8.75
2019-02-16T20:23:51.834Z,8.69
2019-02-16T20:26:31.922Z,8.64
2019-02-16T20:29:10.071Z,8.63
2019-02-16T20:31:54.656Z,8.63
2019-02-16T20:34:28.949Z,8.59
2019-02-16T20:37:03.622Z,8.55
2019-02-16T20:39:42.428Z,8.52
2019-02-16T20:42:34.097Z,8.53
2019-02-16T20:45:17.045Z,8.54
2019-02-16T20:48:00.139Z,8.52
2019-02-16T20:50:53.427Z,8.46
2019-02-16T20:53:44.950Z,8.44
2019-02-16T20:56:21.320Z,8.46
2019-02-16T20:59:07.580Z,8.40
2019-02-16T21:02:00.848Z,8.24
2019-02-16T21:04:43.485Z,8.06
2019-02-16T21:07:35.910Z,7.91
2019-02-16T21:10:21.612Z,7.80
2019-02-16T21:13:00.479Z,7.75
2019-02-16T21:15:33.939Z,7.73
2019-02-16T21:18:20.584Z,7.73
2019-02-16T21:21:17.610Z,7.74
2019-02-16T21:24:08.282Z,7.76
2019-02-16T21:27:02.181Z,7.67
2019-02-16T21:29:39.415Z,7.66
2019-02-16T21:32:16.440Z,7.64
2019-02-16T21:35:03.953Z,7.55
2019-02-16T21:37:55.559Z,7.58
2019-02-16T21:40:49.549Z,7.49
2019-02-16T21:43:36.198Z,7.50
2019-02-16T21:46:21.097Z,7.41
2019-02-16T21:49:06.318Z,7.40
2019-02-16T21:51:59.928Z,7.36
2019-02-16T21:54:39.738Z,7.34
2019-02-16T21:57:27.480Z,7.27
2019-02-16T22:00:14.995Z,7.29
2019-02-16T22:02:58.567Z,7.39
2019-02-16T22:05:35.917Z,7.42
2019-02-16T22:08:29.819Z,7.49
2019-02-16T22:11:06.590Z,7.50
2019-02-16T22:13:35.841Z,7.50
2019-02-16T22:16:04.288Z,7.54
2019-02-16T22:18:32.760Z,7.47
2019-02-16T22:21:01.215Z,7.50
2019-02-16T22:23:29.931Z,7.50
2019-02-16T22:25:58.640Z,7.52
2019-02-16T22:28:30.914Z,7.58
2019-02-16T22:30:57.786Z,7.49
2019-02-16T22:33:26.561Z,7.35
2019-02-16T22:35:55.096Z,7.21
2019-02-16T22:38:23.829Z,7.05
2019-02-16T22:40:52.807Z,6.95
2019-02-16T22:43:21.292Z,6.91
2019-02-16T22:45:50.001Z,6.79
2019-02-16T22:48:20.361Z,6.70
2019-02-16T22:50:48.849Z,6.63
2019-02-16T22:53:17.295Z,6.47
2019-02-16T22:55:46.013Z,6.47
2019-02-16T22:58:14.708Z,6.41
2019-02-16T23:00:44.399Z,6.32
2019-02-16T23:03:13.462Z,6.34
2019-02-16T23:05:41.932Z,6.34
2019-02-16T23:08:11.566Z,6.26
2019-02-16T23:10:40.058Z,6.17
2019-02-16T23:13:08.752Z,6.15
2019-02-16T23:15:37.357Z,6.16
2019-02-16T23:18:05.798Z,5.91
2019-02-16T23:20:34.531Z,5.89
2019-02-16T23:23:03.020Z,5.87
2019-02-16T23:25:31.485Z,5.77
2019-02-16T23:27:59.961Z,5.84
2019-02-16T23:30:30.730Z,5.77
2019-02-16T23:32:59.198Z,5.75
2019-02-16T23:35:27.680Z,5.73
2019-02-16T23:37:56.373Z,5.78
2019-02-16T23:40:25.098Z,5.89
2019-02-16T23:42:53.793Z,6.15
2019-02-16T23:45:22.541Z,6.43
2019-02-16T23:47:51.226Z,6.66
2019-02-16T23:50:20.012Z,6.79
2019-02-16T23:52:48.478Z,6.85
2019-02-16T23:55:19.537Z,6.87
2019-02-16T23:57:48.255Z,6.87
